Time;durP1;ratioP1;P1;durP2;ratioP2;P2;SDS_P1;SDS_P2;PMS_P1;PMS_P2;Temp;Humidity;BMP_temperature;BMP_pressure;BME280_temperature;BME280_humidity;BME280_pressure;Samples;Min_cycle;Max_cycle;Signal;HPM_P1;HPM_P2
2024/03/31 00:00:17;;;;;;;4.45;2.88;;;16.40;78.00;;;;;;5048976;28;20020;-74
2024/03/31 00:02:42;;;;;;;4.88;3.17;;;16.40;78.10;;;;;;5049999;28;20060;-74
2024/03/31 00:05:08;;;;;;;5.17;3.20;;;16.40;78.00;;;;;;5049902;28;20463;-74
2024/03/31 00:07:35;;;;;;;4.17;2.57;;;16.40;78.00;;;;;;5049638;28;20455;-73
2024/03/31 00:10:01;;;;;;;5.53;3.22;;;16.40;78.00;;;;;;5048721;28;20056;-73
2024/03/31 00:12:27;;;;;;;2.88;2.38;;;16.40;78.00;;;;;;5050398;28;20040;-74
2024/03/31 00:14:53;;;;;;;4.80;3.00;;;16.40;78.00;;;;;;5048650;28;20082;-73
2024/03/31 00:17:19;;;;;;;4.13;2.93;;;16.40;78.00;;;;;;5049306;28;20029;-74
2024/03/31 00:19:44;;;;;;;3.60;2.90;;;16.40;78.00;;;;;;5049714;28;20466;-74
2024/03/31 00:22:11;;;;;;;3.33;2.50;;;16.30;77.90;;;;;;5049457;28;20445;-74
2024/03/31 00:24:36;;;;;;;5.53;3.25;;;16.40;77.90;;;;;;5048653;28;20053;-73
2024/03/31 00:27:03;;;;;;;3.80;2.37;;;16.30;77.90;;;;;;5049385;28;20037;-73
2024/03/31 00:29:29;;;;;;;3.03;2.35;;;16.30;77.90;;;;;;5049696;28;20141;-74
2024/03/31 00:31:54;;;;;;;3.07;2.30;;;16.30;77.80;;;;;;5048660;28;20430;-73
2024/03/31 00:34:23;;;;;;;3.80;2.70;;;16.30;77.90;;;;;;5049837;28;20262;-74
2024/03/31 00:36:49;;;;;;;3.38;2.67;;;16.30;77.80;;;;;;5049449;28;20108;-73
2024/03/31 00:39:14;;;;;;;3.47;2.17;;;16.30;77.70;;;;;;5040178;28;20633;-74
2024/03/31 00:41:41;;;;;;;4.93;3.07;;;16.30;77.60;;;;;;5048548;28;20021;-74
2024/03/31 00:44:06;;;;;;;3.08;2.38;;;16.30;77.50;;;;;;5049823;28;20397;-74
2024/03/31 00:46:32;;;;;;;3.03;2.37;;;16.30;77.60;;;;;;5050015;28;20029;-73
2024/03/31 00:48:58;;;;;;;3.97;2.60;;;16.20;77.60;;;;;;5040301;28;20518;-74
2024/03/31 00:51:24;;;;;;;3.73;2.30;;;16.20;77.50;;;;;;5035781;28;20028;-74
2024/03/31 00:53:49;;;;;;;4.93;2.97;;;16.20;77.60;;;;;;5048437;28;20029;-74
2024/03/31 00:56:16;;;;;;;4.30;2.30;;;16.20;77.60;;;;;;5047710;28;20493;-73
2024/03/31 00:58:42;;;;;;;3.90;2.58;;;16.20;77.50;;;;;;5047899;28;20028;-73
2024/03/31 01:01:09;;;;;;;2.95;2.38;;;16.20;77.50;;;;;;5050542;28;20062;-73
2024/03/31 01:03:35;;;;;;;4.80;2.70;;;16.20;77.50;;;;;;5051401;28;20041;-74
2024/03/31 01:06:22;;;;;;;2.37;1.80;;;16.20;77.60;;;;;;5051638;28;20166;-73
2024/03/31 01:08:50;;;;;;;2.95;2.30;;;16.20;77.50;;;;;;5050708;28;20411;-73
2024/03/31 01:11:17;;;;;;;3.20;1.95;;;16.20;77.50;;;;;;5051755;28;20040;-73
2024/03/31 01:13:44;;;;;;;3.17;2.30;;;16.10;77.50;;;;;;5051719;28;20029;-74
2024/03/31 01:16:11;;;;;;;3.85;2.58;;;16.20;77.40;;;;;;5052999;28;20158;-73
2024/03/31 01:18:37;;;;;;;3.17;2.33;;;16.10;77.40;;;;;;5051257;28;20064;-73
2024/03/31 01:21:03;;;;;;;2.83;2.33;;;16.10;77.30;;;;;;5053505;28;20351;-74
2024/03/31 01:23:33;;;;;;;3.53;2.40;;;16.10;77.30;;;;;;5052062;28;20044;-74
2024/03/31 01:26:02;;;;;;;3.72;2.40;;;16.10;77.30;;;;;;5051573;28;20402;-74
2024/03/31 01:28:29;;;;;;;2.88;2.10;;;16.10;77.20;;;;;;5052958;28;20098;-74
2024/03/31 01:30:55;;;;;;;3.75;2.03;;;16.00;77.20;;;;;;5052785;28;20036;-73
2024/03/31 01:33:20;;;;;;;3.20;2.40;;;16.00;77.30;;;;;;5053053;28;20032;-74
2024/03/31 01:35:46;;;;;;;2.83;2.10;;;16.00;77.30;;;;;;5051179;28;20107;-74
2024/03/31 01:38:12;;;;;;;3.20;2.57;;;16.00;77.40;;;;;;5052768;28;20025;-74
2024/03/31 01:40:37;;;;;;;2.77;2.10;;;16.00;77.30;;;;;;5052825;28;20032;-74
2024/03/31 01:43:03;;;;;;;2.83;2.10;;;16.00;77.40;;;;;;5048726;28;20396;-74
2024/03/31 01:45:29;;;;;;;3.17;2.00;;;16.00;77.30;;;;;;5051595;28;20025;-74
2024/03/31 01:47:55;;;;;;;2.57;2.13;;;16.00;77.30;;;;;;5052683;28;20025;-73
2024/03/31 01:50:20;;;;;;;4.00;2.50;;;16.00;77.30;;;;;;5052235;28;20021;-74
2024/03/31 01:52:46;;;;;;;3.33;2.33;;;16.00;77.30;;;;;;5051449;28;20115;-74
2024/03/31 01:55:12;;;;;;;3.43;2.40;;;16.00;77.30;;;;;;5051713;28;20032;-73
2024/03/31 01:57:37;;;;;;;2.47;1.83;;;16.00;77.30;;;;;;5052204;28;20032;-74
2024/03/31 02:00:03;;;;;;;4.40;1.90;;;16.00;77.30;;;;;;5051713;28;20108;-73
2024/03/31 02:02:29;;;;;;;4.25;2.58;;;15.90;77.20;;;;;;5051080;28;20029;-73
2024/03/31 02:04:55;;;;;;;2.67;1.93;;;16.00;77.10;;;;;;5051022;28;20124;-74
2024/03/31 02:07:21;;;;;;;2.97;2.00;;;15.90;77.20;;;;;;5052145;28;20079;-74
2024/03/31 02:09:46;;;;;;;3.37;2.03;;;15.90;77.20;;;;;;5051085;28;20036;-73
2024/03/31 02:12:12;;;;;;;3.23;2.10;;;16.00;77.20;;;;;;5051168;28;20026;-74
2024/03/31 02:14:37;;;;;;;3.90;2.23;;;15.90;77.10;;;;;;5052314;28;20027;-73
2024/03/31 02:17:03;;;;;;;2.77;2.23;;;15.90;77.20;;;;;;5052180;28;20440;-73
2024/03/31 02:19:29;;;;;;;2.30;2.10;;;15.90;77.20;;;;;;5050801;28;20049;-74
2024/03/31 02:21:55;;;;;;;4.30;2.23;;;15.90;77.10;;;;;;5051697;28;20032;-73
2024/03/31 02:24:20;;;;;;;3.30;2.27;;;15.90;77.10;;;;;;5052209;28;20052;-74
2024/03/31 02:26:46;;;;;;;2.30;2.10;;;15.90;77.10;;;;;;5039304;28;20026;-74
2024/03/31 02:29:12;;;;;;;2.50;2.00;;;15.90;77.10;;;;;;5049858;28;20017;-73
2024/03/31 02:31:38;;;;;;;2.73;2.10;;;15.90;77.10;;;;;;5052354;28;20056;-73
2024/03/31 02:34:04;;;;;;;3.27;2.43;;;15.90;77.00;;;;;;5050838;28;20063;-72
2024/03/31 02:36:30;;;;;;;2.60;1.90;;;15.90;77.00;;;;;;5051108;28;20384;-73
2024/03/31 02:38:56;;;;;;;2.85;2.20;;;15.80;77.00;;;;;;5052085;28;20112;-73
2024/03/31 02:41:22;;;;;;;2.88;1.85;;;15.80;77.00;;;;;;5051982;28;20035;-73
2024/03/31 02:43:48;;;;;;;3.47;2.00;;;15.90;77.00;;;;;;5050625;28;20037;-73
2024/03/31 02:46:13;;;;;;;2.97;2.50;;;15.80;76.90;;;;;;5050263;28;20040;-73
2024/03/31 02:48:39;;;;;;;3.80;2.67;;;15.80;76.90;;;;;;5037853;28;20032;-73
2024/03/31 02:51:05;;;;;;;3.00;2.10;;;15.80;76.90;;;;;;5051972;28;20158;-74
2024/03/31 02:53:31;;;;;;;3.13;2.17;;;15.80;76.90;;;;;;5049721;28;20047;-74
2024/03/31 02:55:56;;;;;;;3.30;2.30;;;15.80;76.80;;;;;;5049845;28;20133;-73
2024/03/31 02:58:22;;;;;;;2.30;1.90;;;15.80;76.80;;;;;;5050144;28;20171;-73
2024/03/31 03:00:48;;;;;;;2.67;2.20;;;15.80;76.80;;;;;;5049958;28;20473;-73
2024/03/31 03:03:13;;;;;;;2.93;2.40;;;15.80;76.80;;;;;;5051905;28;20036;-73
2024/03/31 03:05:39;;;;;;;2.63;2.07;;;15.80;76.70;;;;;;5049773;28;20028;-74
2024/03/31 03:08:05;;;;;;;4.40;2.50;;;15.80;76.70;;;;;;5049976;28;20073;-73
2024/03/31 03:10:31;;;;;;;3.65;2.67;;;15.80;76.70;;;;;;5051300;28;20027;-73
2024/03/31 03:12:59;;;;;;;3.43;2.50;;;15.80;76.70;;;;;;5051565;28;20103;-73
2024/03/31 03:15:25;;;;;;;3.83;2.53;;;15.80;76.60;;;;;;5050132;28;20025;-74
2024/03/31 03:17:52;;;;;;;4.80;2.42;;;15.80;76.60;;;;;;5049714;28;20048;-73
2024/03/31 03:20:18;;;;;;;3.47;2.42;;;15.80;76.60;;;;;;5049906;28;20382;-73
2024/03/31 03:22:44;;;;;;;3.35;2.47;;;15.80;76.60;;;;;;5051176;28;20244;-73
2024/03/31 03:25:10;;;;;;;4.35;2.70;;;15.70;76.60;;;;;;5051295;28;20029;-74
2024/03/31 03:27:36;;;;;;;3.70;2.73;;;15.70;76.60;;;;;;5049902;28;20017;-73
2024/03/31 03:30:03;;;;;;;4.93;2.43;;;15.80;76.70;;;;;;5051440;28;20021;-73
2024/03/31 03:32:29;;;;;;;7.95;2.75;;;15.80;76.60;;;;;;5050700;28;20116;-73
2024/03/31 03:34:54;;;;;;;3.10;2.33;;;15.70;76.60;;;;;;5051697;28;20475;-73
2024/03/31 03:37:20;;;;;;;4.33;2.00;;;15.70;76.60;;;;;;5050612;28;20119;-73
2024/03/31 03:39:46;;;;;;;4.27;2.77;;;15.70;76.60;;;;;;5049650;28;20112;-73
2024/03/31 03:42:11;;;;;;;3.60;2.53;;;15.70;76.70;;;;;;5049323;28;20061;-74
2024/03/31 03:44:37;;;;;;;3.23;2.40;;;15.70;76.70;;;;;;5050711;28;20033;-74
2024/03/31 03:47:03;;;;;;;4.53;2.70;;;15.70;76.60;;;;;;5050724;28;20458;-74
2024/03/31 03:49:28;;;;;;;3.90;2.80;;;15.70;76.60;;;;;;5037174;28;20025;-73
2024/03/31 03:51:54;;;;;;;4.90;2.70;;;15.70;76.50;;;;;;5047524;28;20208;-73
2024/03/31 03:54:20;;;;;;;4.03;2.83;;;15.70;76.50;;;;;;5050752;28;20025;-74
2024/03/31 03:56:46;;;;;;;3.60;2.37;;;15.70;76.50;;;;;;5050246;28;20039;-74
2024/03/31 03:59:12;;;;;;;3.53;2.47;;;15.70;76.50;;;;;;5049113;28;20025;-74
2024/03/31 04:01:38;;;;;;;4.07;2.55;;;15.60;76.40;;;;;;5050520;28;20293;-74
2024/03/31 04:04:04;;;;;;;3.53;2.55;;;15.70;76.40;;;;;;5049234;28;20036;-73
2024/03/31 04:06:30;;;;;;;4.10;2.40;;;15.60;76.40;;;;;;5048990;28;20555;-74
2024/03/31 04:08:56;;;;;;;5.28;3.03;;;15.60;76.50;;;;;;5050009;28;20031;-73
2024/03/31 04:11:22;;;;;;;3.57;2.73;;;15.60;76.50;;;;;;5048868;28;20748;-74
2024/03/31 04:13:48;;;;;;;5.50;2.60;;;15.60;76.60;;;;;;5048427;28;20028;-74
2024/03/31 04:16:15;;;;;;;4.05;3.05;;;15.60;76.60;;;;;;5048685;28;20040;-74
2024/03/31 04:18:41;;;;;;;4.50;2.72;;;15.60;76.60;;;;;;5048231;28;20049;-73
2024/03/31 04:21:08;;;;;;;3.30;2.33;;;15.60;76.50;;;;;;5048699;28;20369;-73
2024/03/31 04:23:34;;;;;;;;;;;15.60;76.50;;;;;;5048555;28;20057;-73
2024/03/31 04:25:59;;;;;;;3.50;2.45;;;15.60;76.50;;;;;;5050437;28;19955;-73
2024/03/31 04:28:25;;;;;;;4.23;2.47;;;15.60;76.50;;;;;;5049661;28;20605;-74
2024/03/31 04:30:51;;;;;;;3.77;2.50;;;15.60;76.50;;;;;;5049889;28;20075;-73
2024/03/31 04:33:16;;;;;;;4.63;2.40;;;15.60;76.50;;;;;;5048336;28;20025;-73
2024/03/31 04:35:42;;;;;;;2.67;2.00;;;15.60;76.50;;;;;;5047180;28;20036;-73
2024/03/31 04:38:08;;;;;;;3.87;2.80;;;15.60;76.40;;;;;;5050253;28;20113;-73
2024/03/31 04:40:34;;;;;;;4.47;2.60;;;15.60;76.40;;;;;;5048415;28;20059;-73
2024/03/31 04:43:00;;;;;;;6.63;2.85;;;15.50;76.40;;;;;;5049747;28;20749;-73
2024/03/31 04:45:26;;;;;;;4.05;2.60;;;15.60;76.50;;;;;;5050100;28;20036;-73
2024/03/31 04:47:52;;;;;;;3.60;2.50;;;15.60;76.40;;;;;;5049356;28;20017;-73
2024/03/31 04:50:18;;;;;;;3.50;2.83;;;15.50;76.40;;;;;;5034555;28;20731;-73
2024/03/31 04:52:44;;;;;;;3.58;2.65;;;15.60;76.40;;;;;;5048300;28;20083;-73
2024/03/31 04:55:10;;;;;;;3.40;2.70;;;15.50;76.30;;;;;;5049784;28;20150;-73
2024/03/31 04:57:36;;;;;;;3.57;2.33;;;15.50;76.30;;;;;;5050165;28;20147;-73
2024/03/31 05:00:02;;;;;;;4.43;2.57;;;15.50;76.30;;;;;;5049257;28;20104;-73
2024/03/31 05:02:29;;;;;;;4.05;3.00;;;15.50;76.20;;;;;;5049443;28;20028;-73
2024/03/31 05:04:54;;;;;;;4.28;3.00;;;15.50;76.20;;;;;;5049636;28;20063;-73
2024/03/31 05:07:20;;;;;;;4.47;2.97;;;15.50;76.20;;;;;;5049451;28;20049;-73
2024/03/31 05:09:46;;;;;;;4.17;2.87;;;15.50;76.20;;;;;;5049377;28;20635;-73
2024/03/31 05:12:12;;;;;;;2.30;1.97;;;15.50;76.20;;;;;;5049523;28;20468;-74
2024/03/31 05:14:38;;;;;;;3.87;2.60;;;15.40;76.20;;;;;;5049549;28;20028;-73
2024/03/31 05:17:04;;;;;;;3.43;2.60;;;15.50;76.10;;;;;;5048459;28;20036;-73
2024/03/31 05:19:30;;;;;;;5.10;2.67;;;15.40;76.10;;;;;;5048304;28;20033;-73
2024/03/31 05:21:56;;;;;;;3.85;2.88;;;15.50;76.10;;;;;;5049310;28;20175;-73
2024/03/31 05:24:22;;;;;;;3.80;2.87;;;15.40;76.10;;;;;;5049547;28;20211;-73
2024/03/31 05:26:47;;;;;;;4.20;2.60;;;15.40;76.10;;;;;;5048288;28;20052;-73
2024/03/31 05:29:17;;;;;;;3.83;2.50;;;15.40;76.00;;;;;;5047846;28;20106;-73
2024/03/31 05:31:43;;;;;;;4.03;2.35;;;15.40;76.00;;;;;;5039328;28;20394;-73
2024/03/31 05:34:09;;;;;;;3.43;2.60;;;15.40;76.10;;;;;;5048832;28;20028;-73
2024/03/31 05:36:34;;;;;;;5.30;2.50;;;15.40;76.10;;;;;;5048229;28;20122;-73
2024/03/31 05:39:00;;;;;;;3.10;2.23;;;15.40;76.00;;;;;;5049315;28;20482;-74
2024/03/31 05:41:26;;;;;;;4.23;2.67;;;15.40;76.00;;;;;;5049253;28;20024;-73
2024/03/31 05:43:52;;;;;;;3.33;2.70;;;15.40;76.10;;;;;;5048814;28;20029;-73
2024/03/31 05:46:18;;;;;;;4.40;2.70;;;15.40;76.10;;;;;;5049271;28;20357;-73
2024/03/31 05:48:44;;;;;;;2.97;2.35;;;15.40;76.00;;;;;;5046391;28;20018;-73
2024/03/31 05:51:09;;;;;;;5.13;2.70;;;15.40;76.00;;;;;;5050386;28;20044;-73
2024/03/31 05:53:35;;;;;;;3.17;2.57;;;15.40;76.00;;;;;;5051076;28;20025;-73
2024/03/31 05:56:01;;;;;;;3.37;2.43;;;15.40;76.10;;;;;;5052767;28;20096;-73
2024/03/31 05:58:27;;;;;;;3.10;2.58;;;15.40;76.10;;;;;;5052865;28;20052;-73
2024/03/31 06:00:54;;;;;;;3.43;2.27;;;15.40;76.10;;;;;;5052352;28;20130;-73
2024/03/31 06:03:20;;;;;;;3.63;2.33;;;15.40;76.10;;;;;;5052244;28;20048;-74
2024/03/31 06:05:46;;;;;;;3.00;2.47;;;15.30;76.00;;;;;;5051615;28;20079;-73
2024/03/31 06:08:12;;;;;;;4.32;2.00;;;15.40;76.10;;;;;;5052705;28;20024;-73
2024/03/31 06:10:37;;;;;;;3.30;2.40;;;15.40;76.10;;;;;;5050942;28;20037;-72
2024/03/31 06:13:04;;;;;;;3.57;2.60;;;15.30;76.10;;;;;;5052516;28;20021;-73
2024/03/31 06:15:31;;;;;;;3.42;2.35;;;15.30;76.10;;;;;;5051659;28;20025;-74
2024/03/31 06:17:56;;;;;;;2.50;1.92;;;15.30;76.10;;;;;;5050517;28;20475;-73
2024/03/31 06:20:22;;;;;;;2.93;2.07;;;15.30;76.00;;;;;;5050338;28;20033;-73
2024/03/31 06:22:48;;;;;;;3.17;2.60;;;15.30;76.00;;;;;;5051976;28;20048;-74
2024/03/31 06:25:14;;;;;;;3.27;2.30;;;15.30;76.00;;;;;;5051468;28;21523;-74
2024/03/31 06:27:40;;;;;;;3.20;2.22;;;15.30;76.10;;;;;;5051908;28;20025;-73
2024/03/31 06:30:07;;;;;;;3.95;2.50;;;15.30;76.00;;;;;;5051877;28;20017;-73
2024/03/31 06:32:33;;;;;;;2.50;2.00;;;15.30;75.90;;;;;;5051633;28;20521;-74
2024/03/31 06:34:59;;;;;;;3.00;2.60;;;15.30;75.90;;;;;;5051693;28;20082;-73
2024/03/31 06:37:25;;;;;;;3.60;2.57;;;15.30;75.80;;;;;;5051606;28;20059;-73
2024/03/31 06:39:50;;;;;;;3.10;2.10;;;15.40;75.80;;;;;;5051229;28;20450;-73
2024/03/31 06:42:16;;;;;;;2.43;2.00;;;15.40;75.70;;;;;;5051692;28;20028;-72
2024/03/31 06:44:42;;;;;;;2.00;1.73;;;15.40;75.50;;;;;;5052092;28;20041;-74
2024/03/31 06:47:09;;;;;;;3.05;2.25;;;15.40;75.60;;;;;;5050214;28;20312;-73
2024/03/31 06:49:35;;;;;;;4.22;2.50;;;15.40;75.50;;;;;;5042979;28;20040;-73
2024/03/31 06:52:02;;;;;;;4.03;2.37;;;15.40;75.40;;;;;;5050033;28;20576;-73
2024/03/31 06:54:28;;;;;;;2.33;1.75;;;15.40;75.30;;;;;;5051737;28;20028;-73
2024/03/31 06:56:53;;;;;;;4.27;2.17;;;15.40;75.40;;;;;;5051395;28;20059;-73
2024/03/31 06:59:19;;;;;;;3.23;2.30;;;15.40;75.20;;;;;;5048802;28;20055;-72
2024/03/31 07:01:45;;;;;;;3.47;2.40;;;15.40;75.30;;;;;;5050921;28;20044;-72
2024/03/31 07:04:10;;;;;;;2.57;2.37;;;15.50;75.20;;;;;;5050839;28;20474;-73
2024/03/31 07:06:36;;;;;;;3.73;2.40;;;15.50;75.20;;;;;;5049817;28;20017;-73
2024/03/31 07:09:02;;;;;;;2.93;2.00;;;15.40;75.20;;;;;;5049660;28;20458;-73
2024/03/31 07:11:28;;;;;;;3.23;2.30;;;15.40;75.20;;;;;;5050129;28;20029;-73
2024/03/31 07:13:54;;;;;;;2.72;1.95;;;15.40;75.20;;;;;;5049565;28;20052;-72
2024/03/31 07:16:19;;;;;;;4.93;2.15;;;15.40;75.10;;;;;;5049625;28;20118;-73
2024/03/31 07:18:45;;;;;;;3.30;2.47;;;15.40;75.20;;;;;;5049960;28;20453;-73
2024/03/31 07:21:11;;;;;;;4.47;2.50;;;15.40;75.10;;;;;;5050542;28;20036;-73
2024/03/31 07:23:36;;;;;;;2.57;2.10;;;15.40;75.10;;;;;;5050575;28;20415;-73
2024/03/31 07:26:02;;;;;;;3.40;2.47;;;15.40;75.10;;;;;;5050329;28;20115;-73
2024/03/31 07:28:28;;;;;;;2.97;2.40;;;15.40;75.10;;;;;;5050826;28;20045;-73
2024/03/31 07:30:54;;;;;;;2.30;1.97;;;15.40;75.10;;;;;;5050374;28;20028;-73
2024/03/31 07:33:20;;;;;;;5.70;2.63;;;15.40;75.10;;;;;;5050602;28;20370;-73
2024/03/31 07:35:46;;;;;;;2.45;2.08;;;15.40;75.10;;;;;;5049065;28;20033;-73
2024/03/31 07:38:12;;;;;;;3.63;2.23;;;15.40;75.10;;;;;;5049641;28;20375;-72
2024/03/31 07:40:38;;;;;;;2.58;2.00;;;15.40;75.10;;;;;;5050421;28;20039;-74
2024/03/31 07:43:04;;;;;;;2.70;2.10;;;15.40;75.00;;;;;;5050283;28;21468;-74
2024/03/31 07:45:29;;;;;;;4.27;2.37;;;15.60;74.80;;;;;;5049024;28;20032;-75
2024/03/31 07:47:55;;;;;;;5.27;2.97;;;15.70;74.30;;;;;;5048504;28;20029;-74
2024/03/31 07:50:21;;;;;;;23.58;15.43;;;15.70;74.30;;;;;;5042144;28;20029;-74
2024/03/31 07:52:47;;;;;;;10.70;4.87;;;15.80;74.20;;;;;;5048885;28;20127;-73
2024/03/31 07:55:13;;;;;;;6.40;3.83;;;15.80;74.10;;;;;;5049957;28;20108;-74
2024/03/31 07:57:39;;;;;;;5.13;3.13;;;15.80;74.10;;;;;;5049250;28;20272;-74
2024/03/31 08:00:06;;;;;;;5.77;3.83;;;15.80;74.40;;;;;;5047927;28;20066;-75
2024/03/31 08:02:31;;;;;;;5.25;3.03;;;15.80;74.40;;;;;;5050055;28;20021;-73
2024/03/31 08:04:57;;;;;;;3.77;2.87;;;15.80;74.30;;;;;;5048634;28;20500;-74
2024/03/31 08:07:23;;;;;;;7.83;2.93;;;15.90;74.30;;;;;;5047911;28;20036;-74
2024/03/31 08:09:49;;;;;;;4.23;3.00;;;16.00;74.20;;;;;;5048997;28;20029;-74
2024/03/31 08:12:14;;;;;;;7.53;2.70;;;16.10;73.90;;;;;;5049123;28;20638;-74
2024/03/31 08:14:40;;;;;;;4.60;2.80;;;16.20;73.40;;;;;;5048676;28;20468;-74
2024/03/31 08:17:06;;;;;;;8.70;2.73;;;16.20;73.30;;;;;;5049374;28;20021;-75
2024/03/31 08:19:31;;;;;;;4.77;3.13;;;16.30;73.00;;;;;;5047985;28;20048;-75
2024/03/31 08:21:57;;;;;;;4.40;3.17;;;16.40;72.90;;;;;;5048293;28;20033;-74
2024/03/31 08:24:23;;;;;;;20.83;11.87;;;16.50;72.40;;;;;;5048991;28;20028;-74
2024/03/31 08:26:48;;;;;;;13.70;6.27;;;16.50;72.60;;;;;;5041506;28;20051;-76
2024/03/31 08:29:17;;;;;;;18.77;10.47;;;16.40;72.70;;;;;;5048858;28;20017;-74
2024/03/31 08:31:42;;;;;;;17.58;10.75;;;16.40;73.30;;;;;;5049232;28;20116;-74
2024/03/31 08:34:08;;;;;;;21.27;9.50;;;16.30;73.40;;;;;;5049120;28;20100;-74
2024/03/31 08:36:34;;;;;;;16.77;10.10;;;16.30;73.80;;;;;;5048085;28;20466;-75
2024/03/31 08:39:00;;;;;;;18.60;9.97;;;16.30;74.00;;;;;;5049453;28;20021;-75
2024/03/31 08:41:58;;;;;;;21.17;10.27;;;16.30;73.90;;;;;;5048399;28;20288;-74
2024/03/31 08:44:24;;;;;;;32.00;23.17;;;16.30;74.30;;;;;;5045771;28;20033;-74
2024/03/31 08:46:52;;;;;;;29.50;20.77;;;16.20;74.70;;;;;;5047142;28;20051;-74
2024/03/31 08:49:18;;;;;;;19.77;13.68;;;16.20;74.80;;;;;;5041437;28;20670;-74
2024/03/31 08:51:44;;;;;;;20.77;13.05;;;16.20;75.00;;;;;;5049102;28;20073;-73
2024/03/31 08:54:10;;;;;;;17.23;11.63;;;16.20;75.00;;;;;;5049447;28;20477;-74
2024/03/31 08:56:36;;;;;;;21.77;11.80;;;16.30;74.90;;;;;;5049168;28;20037;-76
2024/03/31 08:59:02;;;;;;;22.63;11.97;;;16.30;74.90;;;;;;5048093;28;20776;-75
2024/03/31 09:01:28;;;;;;;15.93;11.25;;;16.40;74.80;;;;;;5047780;28;20063;-74
2024/03/31 09:03:55;;;;;;;16.83;10.75;;;16.50;74.60;;;;;;5048863;28;20040;-76
2024/03/31 09:06:24;;;;;;;12.60;10.02;;;16.50;74.30;;;;;;5047368;28;20064;-75
2024/03/31 09:09:02;;;;;;;13.75;9.40;;;16.50;74.20;;;;;;5049071;28;20021;-75
2024/03/31 09:11:31;;;;;;;14.02;9.40;;;16.50;74.20;;;;;;5049321;28;20037;-74
2024/03/31 09:13:57;;;;;;;13.18;9.35;;;16.50;74.50;;;;;;5047167;28;20031;-76
2024/03/31 09:16:23;;;;;;;13.87;9.10;;;16.40;74.60;;;;;;5048915;28;20802;-74
2024/03/31 09:18:49;;;;;;;17.15;9.30;;;16.40;74.80;;;;;;5048854;28;20029;-74
2024/03/31 09:21:14;;;;;;;14.17;9.27;;;16.40;74.70;;;;;;5048131;28;20032;-74
2024/03/31 09:23:40;;;;;;;15.60;9.03;;;16.40;74.70;;;;;;5052831;28;21405;-74
2024/03/31 09:26:06;;;;;;;14.43;8.90;;;16.50;74.60;;;;;;5053082;28;20028;-74
2024/03/31 09:28:32;;;;;;;12.32;8.88;;;16.50;74.70;;;;;;5051610;28;20036;-73
2024/03/31 09:30:58;;;;;;;11.85;8.13;;;16.50;74.80;;;;;;5052731;28;20029;-75
2024/03/31 09:33:24;;;;;;;13.90;9.00;;;16.40;74.90;;;;;;5051709;28;20031;-74
2024/03/31 09:35:53;;;;;;;11.33;8.40;;;16.50;74.90;;;;;;5051530;28;20098;-73
2024/03/31 09:38:18;;;;;;;12.82;8.23;;;16.50;74.80;;;;;;5051613;28;20075;-74
2024/03/31 09:40:44;;;;;;;11.50;7.57;;;16.60;74.50;;;;;;5052306;28;20029;-74
2024/03/31 09:43:10;;;;;;;9.75;7.70;;;16.60;74.40;;;;;;5052220;28;20425;-74
2024/03/31 09:45:42;;;;;;;11.77;7.90;;;16.70;74.20;;;;;;5051436;28;20086;-74
2024/03/31 09:48:11;;;;;;;11.25;6.88;;;16.70;74.10;;;;;;5050441;28;20025;-74
2024/03/31 09:50:42;;;;;;;11.02;7.82;;;16.70;73.90;;;;;;5050729;28;20108;-74
2024/03/31 09:53:17;;;;;;;10.50;7.60;;;16.70;73.80;;;;;;5050673;28;20532;-76
2024/03/31 09:55:44;;;;;;;9.95;6.35;;;16.80;73.70;;;;;;5052398;28;20033;-75
2024/03/31 09:58:12;;;;;;;10.95;7.22;;;16.80;73.80;;;;;;5050751;28;20029;-75
2024/03/31 10:00:41;;;;;;;10.57;7.07;;;16.80;74.00;;;;;;5046298;28;20025;-74
2024/03/31 10:03:17;;;;;;;9.65;7.28;;;16.90;74.00;;;;;;5051655;28;20055;-75
2024/03/31 10:05:44;;;;;;;10.45;6.68;;;17.00;73.90;;;;;;5046764;28;20063;-74
2024/03/31 10:08:13;;;;;;;15.98;7.10;;;17.20;73.30;;;;;;5051873;28;20075;-75
2024/03/31 10:10:39;;;;;;;47.08;23.70;;;17.50;72.30;;;;;;5051124;28;20071;-75
2024/03/31 10:13:07;;;;;;;30.92;14.70;;;17.60;71.80;;;;;;5051732;28;20086;-74
2024/03/31 10:15:34;;;;;;;24.83;13.82;;;17.70;71.50;;;;;;5050706;28;20206;-74
2024/03/31 10:18:03;;;;;;;29.00;14.68;;;17.70;71.70;;;;;;5050363;28;20045;-74
2024/03/31 10:20:29;;;;;;;27.45;13.82;;;17.60;72.10;;;;;;5051897;28;20079;-74
2024/03/31 10:22:56;;;;;;;;;;;17.60;72.30;;;;;;5052258;28;20025;-74
2024/03/31 10:25:24;;;;;;;20.83;12.38;;;17.50;72.30;;;;;;5052119;28;19917;-74
2024/03/31 10:27:52;;;;;;;20.95;11.85;;;17.60;72.20;;;;;;5043787;28;20029;-74
2024/03/31 10:30:18;;;;;;;19.58;10.93;;;17.80;71.60;;;;;;5050167;28;20021;-73
2024/03/31 10:32:45;;;;;;;19.13;11.40;;;18.00;71.00;;;;;;5049004;28;20067;-74
2024/03/31 10:35:13;;;;;;;18.25;10.38;;;18.60;69.10;;;;;;5051077;28;20129;-74
2024/03/31 10:37:39;;;;;;;15.82;9.80;;;19.50;66.50;;;;;;5050694;28;20032;-74
2024/03/31 10:40:06;;;;;;;16.63;9.43;;;19.60;66.10;;;;;;5051925;28;20021;-74
2024/03/31 10:42:32;;;;;;;;;;;19.90;65.30;;;;;;5050606;28;20055;-74
2024/03/31 10:44:58;;;;;;;17.50;9.32;;;19.90;65.20;;;;;;5051422;28;19924;-75
2024/03/31 10:47:24;;;;;;;13.60;8.77;;;19.70;66.00;;;;;;5051395;28;20462;-74
2024/03/31 10:50:00;;;;;;;18.52;9.38;;;19.60;66.60;;;;;;5043903;28;20119;-73
2024/03/31 10:52:27;;;;;;;14.35;8.98;;;19.70;66.50;;;;;;5050048;28;20439;-74
2024/03/31 10:54:55;;;;;;;14.60;9.07;;;20.70;64.00;;;;;;5051190;28;20131;-73
2024/03/31 10:57:22;;;;;;;11.63;8.52;;;21.50;61.30;;;;;;5051234;28;20017;-74
2024/03/31 10:59:48;;;;;;;13.13;8.52;;;20.90;62.70;;;;;;5051502;28;20029;-74
2024/03/31 11:02:14;;;;;;;14.52;9.13;;;21.10;62.70;;;;;;5049290;28;20572;-74
2024/03/31 11:04:41;;;;;;;12.33;8.70;;;20.40;64.70;;;;;;5051305;28;20028;-74
2024/03/31 11:07:10;;;;;;;12.15;8.00;;;20.80;64.20;;;;;;5050435;28;20106;-74
2024/03/31 11:09:41;;;;;;;12.82;8.75;;;20.80;63.90;;;;;;5050884;28;20059;-75
2024/03/31 11:12:09;;;;;;;12.93;8.50;;;20.10;66.20;;;;;;5051014;28;20075;-74
2024/03/31 11:14:35;;;;;;;16.10;8.15;;;20.50;65.70;;;;;;5053542;28;20139;-75
2024/03/31 11:17:02;;;;;;;10.77;7.65;;;21.00;64.20;;;;;;5046505;28;20025;-75
2024/03/31 11:19:28;;;;;;;;;;;21.00;64.30;;;;;;5042901;28;20522;-74
2024/03/31 11:22:13;;;;;;;13.27;7.88;;;21.20;63.90;;;;;;5041933;28;20046;-73
2024/03/31 11:24:41;;;;;;;16.35;7.88;;;21.00;63.80;;;;;;5048316;28;20420;-74
2024/03/31 11:27:08;;;;;;;10.80;7.07;;;20.70;64.70;;;;;;5038798;28;20105;-75
2024/03/31 11:29:34;;;;;;;11.63;7.07;;;20.40;66.10;;;;;;5037231;28;20029;-78
2024/03/31 11:32:00;;;;;;;16.00;8.25;;;20.10;67.30;;;;;;5036924;28;20150;-74
2024/03/31 11:34:26;;;;;;;15.70;8.33;;;20.20;67.10;;;;;;5032300;28;20051;-74
2024/03/31 11:36:52;;;;;;;13.83;8.17;;;20.00;67.80;;;;;;5037347;28;20258;-75
2024/03/31 11:39:18;;;;;;;15.20;9.33;;;20.40;66.90;;;;;;5034586;28;20029;-75
2024/03/31 11:41:44;;;;;;;14.43;8.57;;;20.50;66.70;;;;;;5034963;28;20032;-75
2024/03/31 11:44:10;;;;;;;15.35;9.82;;;20.50;66.70;;;;;;5045419;28;20025;-74
2024/03/31 11:46:36;;;;;;;15.98;8.88;;;20.70;66.30;;;;;;5045176;28;20028;-74
2024/03/31 11:49:03;;;;;;;14.65;8.55;;;20.70;66.30;;;;;;5043815;28;20033;-74
2024/03/31 11:51:33;;;;;;;12.52;7.88;;;20.70;66.20;;;;;;5049859;28;20063;-74
2024/03/31 11:53:59;;;;;;;10.60;8.15;;;20.60;66.50;;;;;;5048691;28;20033;-75
2024/03/31 11:56:25;;;;;;;10.23;7.10;;;20.40;67.40;;;;;;5050208;28;20138;-73
2024/03/31 11:58:51;;;;;;;14.13;7.83;;;20.20;68.20;;;;;;5048516;28;20476;-74
2024/03/31 12:01:24;;;;;;;17.60;8.43;;;20.10;68.50;;;;;;5050146;28;20032;-74
2024/03/31 12:03:56;;;;;;;13.27;8.13;;;20.10;68.70;;;;;;5049431;28;20025;-74
2024/03/31 12:06:23;;;;;;;14.50;8.43;;;20.10;68.80;;;;;;5045745;28;20029;-73
2024/03/31 12:08:52;;;;;;;13.30;7.88;;;20.10;68.80;;;;;;5049604;28;20029;-74
2024/03/31 12:11:21;;;;;;;13.30;8.27;;;20.10;68.80;;;;;;5050347;28;20072;-73
2024/03/31 12:13:51;;;;;;;12.07;7.50;;;20.00;69.00;;;;;;5049665;28;20025;-74
2024/03/31 12:16:20;;;;;;;13.20;7.47;;;19.90;69.30;;;;;;5050116;28;20094;-74
2024/03/31 12:18:49;;;;;;;18.15;7.80;;;19.80;69.50;;;;;;5049075;28;20044;-74
2024/03/31 12:21:22;;;;;;;13.35;7.15;;;20.00;68.90;;;;;;5048488;28;20020;-74
2024/03/31 12:23:51;;;;;;;14.05;7.78;;;20.10;68.40;;;;;;5047548;28;20044;-74
2024/03/31 12:26:19;;;;;;;12.40;7.13;;;20.20;68.10;;;;;;5049788;28;20048;-75
2024/03/31 12:28:45;;;;;;;12.57;7.43;;;20.20;68.00;;;;;;5049278;28;20462;-74
2024/03/31 12:31:16;;;;;;;13.48;7.32;;;20.10;68.10;;;;;;5048104;28;20025;-74
2024/03/31 12:33:43;;;;;;;13.95;6.13;;;20.20;67.80;;;;;;5048093;28;20133;-74
2024/03/31 12:36:10;;;;;;;11.95;6.78;;;20.10;67.60;;;;;;5046668;28;20036;-73
2024/03/31 12:38:36;;;;;;;10.73;6.43;;;20.10;67.70;;;;;;5049832;28;20020;-74